Time;durP1;ratioP1;P1;durP2;ratioP2;P2;SDS_P1;SDS_P2;PMS_P1;PMS_P2;Temp;Humidity;BMP_temperature;BMP_pressure;BME280_temperature;BME280_humidity;BME280_pressure;Samples;Min_cycle;Max_cycle;Signal;HPM_P1;HPM_P2
2022/10/23 00:01:25;;;;;;;10.63;4.55;;;;;;;;;;4985085;28;20058;-78
2022/10/23 00:03:53;;;;;;;10.68;4.35;;;;;;;;;;4970431;28;20027;-77
2022/10/23 00:06:20;;;;;;;8.27;3.97;;;;;;;;;;4970802;28;20046;-77
2022/10/23 00:08:46;;;;;;;7.43;3.95;;;;;;;;;;4973939;28;20054;-78
2022/10/23 00:11:14;;;;;;;6.15;3.50;;;;;;;;;;4976342;28;20031;-79
2022/10/23 00:13:40;;;;;;;13.20;4.15;;;;;;;;;;4970914;28;20114;-79
2022/10/23 00:16:07;;;;;;;10.32;3.72;;;;;;;;;;4975417;28;20026;-78
2022/10/23 00:18:33;;;;;;;11.18;3.70;;;;;;;;;;4980005;28;20030;-77
2022/10/23 00:20:59;;;;;;;5.97;3.72;;;;;;;;;;4971555;28;20030;-78
2022/10/23 00:23:25;;;;;;;6.93;3.88;;;;;;;;;;4968908;28;20082;-79
2022/10/23 00:25:51;;;;;;;9.93;3.67;;;;;;;;;;4974835;28;20058;-77
2022/10/23 00:28:17;;;;;;;4.43;2.80;;;;;;;;;;4977573;28;20498;-81
2022/10/23 00:30:43;;;;;;;6.53;3.15;;;;;;;;;;4977120;28;20011;-78
2022/10/23 00:33:10;;;;;;;8.20;3.00;;;;;;;;;;4982917;28;20038;-77
2022/10/23 00:35:42;;;;;;;4.68;2.60;;;;;;;;;;4967174;28;20031;-80
2022/10/23 00:38:10;;;;;;;7.30;2.80;;;;;;;;;;4983019;28;20480;-80
2022/10/23 00:40:38;;;;;;;4.75;2.90;;;;;;;;;;4969956;28;20031;-78
2022/10/23 00:43:04;;;;;;;7.53;3.17;;;;;;;;;;4967748;28;20038;-77
2022/10/23 00:45:32;;;;;;;5.20;2.72;;;;;;;;;;4966101;28;20034;-78
2022/10/23 00:47:59;;;;;;;6.55;2.78;;;;;;;;;;4975934;28;20045;-78
2022/10/23 00:50:29;;;;;;;6.22;2.70;;;;;;;;;;4980295;28;20018;-79
2022/10/23 00:52:56;;;;;;;3.80;2.38;;;;;;;;;;4974982;28;20130;-80
2022/10/23 00:55:23;;;;;;;2.72;1.92;;;;;;;;;;4977216;28;20022;-81
2022/10/23 00:57:49;;;;;;;5.75;2.13;;;;;;;;;;4979582;28;20054;-80
2022/10/23 01:00:21;;;;;;;2.05;1.67;;;;;;;;;;4977303;28;20550;-79
2022/10/23 01:02:47;;;;;;;2.75;1.70;;;;;;;;;;4967446;28;20034;-79
2022/10/23 01:05:13;;;;;;;3.20;1.63;;;;;;;;;;4980449;28;20037;-81
2022/10/23 01:07:47;;;;;;;2.40;1.60;;;;;;;;;;4992111;28;20051;-81
2022/10/23 01:10:19;;;;;;;1.77;1.65;;;;;;;;;;4992351;28;20412;-84
2022/10/23 01:12:55;;;;;;;4.60;1.85;;;;;;;;;;4982880;28;20102;-81
2022/10/23 01:15:24;;;;;;;;;;;;;;;;;;4989568;28;20388;-79
2022/10/23 01:18:36;;;;;;;2.10;1.80;;;;;;;;;;5001280;28;19906;-79
2022/10/23 01:21:13;;;;;;;1.75;1.60;;;;;;;;;;4977283;28;20035;-81
2022/10/23 01:24:08;;;;;;;2.67;1.80;;;;;;;;;;4977969;28;20047;-80
2022/10/23 01:26:56;;;;;;;2.47;1.75;;;;;;;;;;4991786;28;20039;-80
2022/10/23 01:29:51;;;;;;;2.38;1.80;;;;;;;;;;4984875;28;20069;-80
2022/10/23 01:32:23;;;;;;;2.63;2.17;;;;;;;;;;4978861;28;20512;-79
2022/10/23 01:34:54;;;;;;;3.45;1.85;;;;;;;;;;4994446;28;20050;-79
2022/10/23 01:37:23;;;;;;;4.20;2.30;;;;;;;;;;4966271;28;20031;-80
2022/10/23 01:39:52;;;;;;;5.68;2.20;;;;;;;;;;4976752;28;20031;-79
2022/10/23 01:42:23;;;;;;;4.32;2.08;;;;;;;;;;4975123;28;20113;-79
2022/10/23 01:45:02;;;;;;;2.03;1.90;;;;;;;;;;4978689;28;20035;-79
2022/10/23 01:47:31;;;;;;;3.53;2.35;;;;;;;;;;4984139;28;20026;-79
2022/10/23 01:49:58;;;;;;;4.97;2.10;;;;;;;;;;4991924;28;20022;-80
2022/10/23 01:52:25;;;;;;;3.03;1.80;;;;;;;;;;4982124;28;20030;-79
2022/10/23 01:54:52;;;;;;;3.10;1.83;;;;;;;;;;4982365;28;20038;-80
2022/10/23 01:57:20;;;;;;;3.53;2.20;;;;;;;;;;4978966;28;20098;-80
2022/10/23 01:59:49;;;;;;;2.25;1.80;;;;;;;;;;4984016;28;20108;-80
2022/10/23 02:02:15;;;;;;;4.10;2.60;;;;;;;;;;4975485;28;20035;-79
2022/10/23 02:04:52;;;;;;;5.45;3.55;;;;;;;;;;4973016;28;20033;-79
2022/10/23 02:07:18;;;;;;;8.65;3.92;;;;;;;;;;4973587;28;20047;-79
2022/10/23 02:09:44;;;;;;;8.55;4.18;;;;;;;;;;4974581;28;20034;-79
2022/10/23 02:12:19;;;;;;;9.40;4.75;;;;;;;;;;4973311;28;20083;-79
2022/10/23 02:14:50;;;;;;;8.55;4.43;;;;;;;;;;4973796;28;20042;-79
2022/10/23 02:17:30;;;;;;;12.25;5.10;;;;;;;;;;4972220;28;20069;-79
2022/10/23 02:20:02;;;;;;;13.20;6.00;;;;;;;;;;4973909;28;20512;-79
2022/10/23 02:22:30;;;;;;;10.88;6.97;;;;;;;;;;4969357;28;20035;-78
2022/10/23 02:24:59;;;;;;;16.48;6.72;;;;;;;;;;4987273;28;20122;-80
2022/10/23 02:27:29;;;;;;;13.77;7.20;;;;;;;;;;4970629;28;20037;-79
2022/10/23 02:29:56;;;;;;;11.07;6.82;;;;;;;;;;4971905;28;20134;-80
2022/10/23 02:32:24;;;;;;;15.05;7.95;;;;;;;;;;4975573;28;20031;-79
2022/10/23 02:34:50;;;;;;;12.65;7.03;;;;;;;;;;4969392;28;20549;-79
2022/10/23 02:37:16;;;;;;;12.13;6.30;;;;;;;;;;4974220;28;20102;-79
2022/10/23 02:39:43;;;;;;;13.77;7.43;;;;;;;;;;4985997;28;20038;-79
2022/10/23 02:42:09;;;;;;;13.82;6.68;;;;;;;;;;4964975;28;20037;-80
2022/10/23 02:44:42;;;;;;;14.52;6.53;;;;;;;;;;4973139;28;20038;-80
2022/10/23 02:47:08;;;;;;;13.00;5.45;;;;;;;;;;4970327;28;20053;-79
2022/10/23 02:49:40;;;;;;;13.05;5.43;;;;;;;;;;4972397;28;20034;-80
2022/10/23 02:52:25;;;;;;;11.30;5.82;;;;;;;;;;4988291;28;20088;-81
2022/10/23 02:54:57;;;;;;;14.70;4.93;;;;;;;;;;4980663;28;20436;-78
2022/10/23 02:57:29;;;;;;;10.95;4.82;;;;;;;;;;4970114;28;20614;-78
2022/10/23 02:59:55;;;;;;;10.48;4.82;;;;;;;;;;4964801;28;20031;-79
2022/10/23 03:02:33;;;;;;;10.15;4.50;;;;;;;;;;4968278;28;20033;-79
2022/10/23 03:05:00;;;;;;;9.02;4.50;;;;;;;;;;4977445;28;20038;-79
2022/10/23 03:07:26;;;;;;;8.55;4.15;;;;;;;;;;4974529;28;20506;-80
2022/10/23 03:09:52;;;;;;;8.65;4.50;;;;;;;;;;4977237;28;20085;-80
2022/10/23 03:12:19;;;;;;;7.50;4.07;;;;;;;;;;4980291;28;20039;-81
2022/10/23 03:14:50;;;;;;;10.23;4.57;;;;;;;;;;4991614;28;20042;-82
2022/10/23 03:17:16;;;;;;;8.02;4.00;;;;;;;;;;4988122;28;20026;-81
2022/10/23 03:19:42;;;;;;;5.03;3.63;;;;;;;;;;4987931;28;20037;-79
2022/10/23 03:22:08;;;;;;;10.48;4.10;;;;;;;;;;4998034;28;20034;-79
2022/10/23 03:24:35;;;;;;;5.88;3.35;;;;;;;;;;4993924;28;20046;-81
2022/10/23 03:27:01;;;;;;;7.65;4.05;;;;;;;;;;4985260;28;20026;-81
2022/10/23 03:29:27;;;;;;;6.97;3.60;;;;;;;;;;4979244;28;20508;-81
2022/10/23 03:31:54;;;;;;;5.85;4.18;;;;;;;;;;4991138;28;20030;-80
2022/10/23 03:34:20;;;;;;;7.03;3.72;;;;;;;;;;4981506;28;20015;-80
2022/10/23 03:36:46;;;;;;;5.05;3.63;;;;;;;;;;4982257;28;20117;-81
2022/10/23 03:39:12;;;;;;;6.97;3.47;;;;;;;;;;4979245;28;20023;-79
2022/10/23 03:41:38;;;;;;;8.85;4.15;;;;;;;;;;4984029;28;20046;-79
2022/10/23 03:44:04;;;;;;;7.95;3.70;;;;;;;;;;4973847;28;20094;-79
2022/10/23 03:46:33;;;;;;;6.90;3.92;;;;;;;;;;4979396;28;20035;-79
2022/10/23 03:48:59;;;;;;;7.22;3.50;;;;;;;;;;4976136;28;20027;-79
2022/10/23 03:51:26;;;;;;;8.68;4.00;;;;;;;;;;4977459;28;20026;-79
2022/10/23 03:53:52;;;;;;;10.35;4.13;;;;;;;;;;4975609;28;20023;-79
2022/10/23 03:56:18;;;;;;;10.60;4.28;;;;;;;;;;4982885;28;20131;-79
2022/10/23 03:58:44;;;;;;;6.28;3.97;;;;;;;;;;4982480;28;20081;-77
2022/10/23 04:01:10;;;;;;;8.65;4.85;;;;;;;;;;4973391;28;20030;-78
2022/10/23 04:03:36;;;;;;;10.35;4.55;;;;;;;;;;4972622;28;20039;-78
2022/10/23 04:06:05;;;;;;;9.32;4.50;;;;;;;;;;4971193;28;20050;-78
2022/10/23 04:08:31;;;;;;;9.05;5.15;;;;;;;;;;4975098;28;20042;-80
2022/10/23 04:10:57;;;;;;;6.15;3.88;;;;;;;;;;4975697;28;20064;-79
2022/10/23 04:13:23;;;;;;;10.00;4.07;;;;;;;;;;4976017;28;20026;-78
2022/10/23 04:15:50;;;;;;;9.18;4.93;;;;;;;;;;4979652;28;20542;-79
2022/10/23 04:18:16;;;;;;;8.30;4.28;;;;;;;;;;4978274;28;20471;-80
2022/10/23 04:20:42;;;;;;;8.73;4.15;;;;;;;;;;4975658;28;20037;-81
2022/10/23 04:23:08;;;;;;;5.85;3.88;;;;;;;;;;4967747;28;20106;-78
2022/10/23 04:25:34;;;;;;;8.65;4.50;;;;;;;;;;4979319;28;20105;-78
2022/10/23 04:28:00;;;;;;;5.65;4.85;;;;;;;;;;4970922;28;20577;-77
2022/10/23 04:30:26;;;;;;;8.85;4.05;;;;;;;;;;4974030;28;20037;-78
2022/10/23 04:32:52;;;;;;;6.90;3.47;;;;;;;;;;4969846;28;20121;-78
2022/10/23 04:35:19;;;;;;;5.78;3.55;;;;;;;;;;4979201;28;20030;-79
2022/10/23 04:37:45;;;;;;;9.38;3.88;;;;;;;;;;4971902;28;20058;-79
2022/10/23 04:40:14;;;;;;;6.07;3.53;;;;;;;;;;4995792;28;20026;-79
2022/10/23 04:42:41;;;;;;;7.50;3.78;;;;;;;;;;4980340;28;20027;-79
2022/10/23 04:45:07;;;;;;;7.72;3.33;;;;;;;;;;4975542;28;20026;-79
2022/10/23 04:47:33;;;;;;;4.32;2.97;;;;;;;;;;4965458;28;20405;-79
2022/10/23 04:49:59;;;;;;;5.93;3.58;;;;;;;;;;4972737;28;20030;-79
2022/10/23 04:52:25;;;;;;;5.90;3.10;;;;;;;;;;4980010;28;20086;-79
2022/10/23 04:54:51;;;;;;;6.10;3.33;;;;;;;;;;4969928;28;20023;-79
2022/10/23 04:57:17;;;;;;;4.55;2.80;;;;;;;;;;4971608;28;20039;-79
2022/10/23 04:59:43;;;;;;;5.45;2.85;;;;;;;;;;4984470;28;20051;-79
2022/10/23 05:02:09;;;;;;;9.15;3.25;;;;;;;;;;4985287;28;20362;-80
2022/10/23 05:04:35;;;;;;;5.05;2.95;;;;;;;;;;4987093;28;20035;-79
2022/10/23 05:07:01;;;;;;;6.97;3.10;;;;;;;;;;4983360;28;20070;-79
2022/10/23 05:09:27;;;;;;;6.28;3.65;;;;;;;;;;4985054;28;20037;-79
2022/10/23 05:11:54;;;;;;;8.48;3.40;;;;;;;;;;4980226;28;20071;-79
2022/10/23 05:14:20;;;;;;;5.53;3.50;;;;;;;;;;4973336;28;20027;-81
2022/10/23 05:16:46;;;;;;;7.95;4.78;;;;;;;;;;4981580;28;20019;-79
2022/10/23 05:19:14;;;;;;;5.85;3.72;;;;;;;;;;4981646;28;20026;-79
2022/10/23 05:21:42;;;;;;;8.98;3.75;;;;;;;;;;4979438;28;20094;-79
2022/10/23 05:24:10;;;;;;;9.88;4.20;;;;;;;;;;4989125;28;20026;-81
2022/10/23 05:26:36;;;;;;;7.40;3.85;;;;;;;;;;5002009;28;20031;-80
2022/10/23 05:29:02;;;;;;;12.73;4.28;;;;;;;;;;4987171;28;20095;-81
2022/10/23 05:31:28;;;;;;;7.03;3.95;;;;;;;;;;4973964;28;20023;-80
2022/10/23 05:33:55;;;;;;;6.28;3.90;;;;;;;;;;4978782;28;20030;-79
2022/10/23 05:36:22;;;;;;;8.32;4.15;;;;;;;;;;4973440;28;20030;-79
2022/10/23 05:38:48;;;;;;;9.50;4.75;;;;;;;;;;4982652;28;20371;-79
2022/10/23 05:41:14;;;;;;;8.80;4.03;;;;;;;;;;4979367;28;20421;-79
2022/10/23 05:43:40;;;;;;;5.70;3.63;;;;;;;;;;4983441;28;20086;-79
2022/10/23 05:46:06;;;;;;;8.93;3.75;;;;;;;;;;4983352;28;20045;-80
2022/10/23 05:48:33;;;;;;;7.43;4.95;;;;;;;;;;4977031;28;20069;-80
2022/10/23 05:51:06;;;;;;;5.95;3.67;;;;;;;;;;4976514;28;20073;-79
2022/10/23 05:53:32;;;;;;;9.63;3.80;;;;;;;;;;4973847;28;20074;-79
2022/10/23 05:56:08;;;;;;;9.73;3.55;;;;;;;;;;4976605;28;20027;-79
2022/10/23 05:58:34;;;;;;;5.18;2.95;;;;;;;;;;4980941;28;20041;-80
2022/10/23 06:01:04;;;;;;;7.53;4.05;;;;;;;;;;4977165;28;20025;-79
2022/10/23 06:03:30;;;;;;;10.50;3.80;;;;;;;;;;4965344;28;20179;-80
2022/10/23 06:05:57;;;;;;;6.82;3.25;;;;;;;;;;4982385;28;20046;-80
2022/10/23 06:08:23;;;;;;;7.45;3.10;;;;;;;;;;4966796;28;20154;-80
2022/10/23 06:10:49;;;;;;;9.63;3.28;;;;;;;;;;4980950;28;20043;-79
2022/10/23 06:13:15;;;;;;;8.98;3.60;;;;;;;;;;4992901;28;20027;-79
2022/10/23 06:15:41;;;;;;;8.50;3.40;;;;;;;;;;4966944;28;20517;-79
2022/10/23 06:18:07;;;;;;;8.55;2.92;;;;;;;;;;4974424;28;20073;-80
2022/10/23 06:20:37;;;;;;;9.18;3.13;;;;;;;;;;4967489;28;20077;-78
2022/10/23 06:23:04;;;;;;;4.32;2.85;;;;;;;;;;4985897;28;20034;-79
2022/10/23 06:25:30;;;;;;;8.85;3.33;;;;;;;;;;4974897;28;20038;-80
2022/10/23 06:27:56;;;;;;;8.98;3.45;;;;;;;;;;4985367;28;20099;-79
2022/10/23 06:30:22;;;;;;;6.95;3.13;;;;;;;;;;4987177;28;20030;-79
2022/10/23 06:32:49;;;;;;;5.85;3.22;;;;;;;;;;4981195;28;20038;-80
2022/10/23 06:35:15;;;;;;;9.27;3.20;;;;;;;;;;4978056;28;20498;-79
2022/10/23 06:37:41;;;;;;;9.07;3.20;;;;;;;;;;4975959;28;20069;-79
2022/10/23 06:40:07;;;;;;;16.02;3.90;;;;;;;;;;4973949;28;20474;-81
2022/10/23 06:42:33;;;;;;;11.27;3.08;;;;;;;;;;4975979;28;20498;-78
2022/10/23 06:45:00;;;;;;;8.68;2.97;;;;;;;;;;4973525;28;20063;-80
2022/10/23 06:47:26;;;;;;;6.65;2.95;;;;;;;;;;4982104;28;20081;-80
2022/10/23 06:49:52;;;;;;;9.48;3.08;;;;;;;;;;4975790;28;20035;-80
2022/10/23 06:52:18;;;;;;;10.00;3.47;;;;;;;;;;4980429;28;20063;-80
2022/10/23 06:54:44;;;;;;;6.82;3.95;;;;;;;;;;4977649;28;20493;-79
2022/10/23 06:57:10;;;;;;;11.90;3.92;;;;;;;;;;4975905;28;20262;-79
2022/10/23 06:59:36;;;;;;;9.35;2.95;;;;;;;;;;4977927;28;20100;-80
2022/10/23 07:02:02;;;;;;;12.32;3.30;;;;;;;;;;4991703;28;20046;-79
2022/10/23 07:04:28;;;;;;;11.40;3.35;;;;;;;;;;4974007;28;20039;-79
2022/10/23 07:06:57;;;;;;;6.72;3.22;;;;;;;;;;4974342;28;20129;-79
2022/10/23 07:09:24;;;;;;;8.57;3.10;;;;;;;;;;4981469;28;20035;-79
2022/10/23 07:11:50;;;;;;;6.13;3.17;;;;;;;;;;4983753;28;20050;-80
2022/10/23 07:14:16;;;;;;;9.85;3.15;;;;;;;;;;4978024;28;20058;-78
2022/10/23 07:16:42;;;;;;;8.55;3.35;;;;;;;;;;4990263;28;20442;-81
2022/10/23 07:19:08;;;;;;;10.68;3.17;;;;;;;;;;4985497;28;20035;-79
2022/10/23 07:21:35;;;;;;;5.15;2.72;;;;;;;;;;4978440;28;20074;-79
2022/10/23 07:24:01;;;;;;;9.95;3.10;;;;;;;;;;4981226;28;20081;-80
2022/10/23 07:26:28;;;;;;;6.97;4.05;;;;;;;;;;4979957;28;20045;-81
2022/10/23 07:28:54;;;;;;;9.30;3.42;;;;;;;;;;4980658;28;20027;-81
2022/10/23 07:31:21;;;;;;;6.53;3.25;;;;;;;;;;4978253;28;20026;-79
2022/10/23 07:33:47;;;;;;;5.35;2.72;;;;;;;;;;4976406;28;20085;-79
2022/10/23 07:36:13;;;;;;;8.48;3.58;;;;;;;;;;4981122;28;20433;-79
2022/10/23 07:38:39;;;;;;;7.75;2.78;;;;;;;;;;4982157;28;20049;-77
2022/10/23 07:41:05;;;;;;;14.10;3.60;;;;;;;;;;4983929;28;20022;-79
2022/10/23 07:43:32;;;;;;;14.63;3.85;;;;;;;;;;4981182;28;20031;-79
2022/10/23 07:45:59;;;;;;;12.18;3.70;;;;;;;;;;4993511;28;20077;-79
2022/10/23 07:48:26;;;;;;;14.57;3.55;;;;;;;;;;4979408;28;20081;-80
2022/10/23 07:50:52;;;;;;;10.57;5.05;;;;;;;;;;4975761;28;20027;-77
2022/10/23 07:53:20;;;;;;;11.77;4.00;;;;;;;;;;4980671;28;20037;-78
2022/10/23 07:55:55;;;;;;;8.75;3.17;;;;;;;;;;4989326;28;20043;-78
2022/10/23 07:58:22;;;;;;;11.63;4.10;;;;;;;;;;4988527;28;20025;-80
2022/10/23 08:00:54;;;;;;;9.55;3.55;;;;;;;;;;5005383;28;20051;-82
2022/10/23 08:03:20;;;;;;;11.20;3.47;;;;;;;;;;4988019;28;20023;-81
2022/10/23 08:05:46;;;;;;;7.93;3.08;;;;;;;;;;4990926;28;20054;-80
2022/10/23 08:08:12;;;;;;;6.45;2.90;;;;;;;;;;4980264;28;20051;-81
2022/10/23 08:10:40;;;;;;;5.07;2.92;;;;;;;;;;4986261;28;20035;-81
2022/10/23 08:13:06;;;;;;;5.65;3.35;;;;;;;;;;4991691;28;20031;-82
2022/10/23 08:15:32;;;;;;;7.07;3.05;;;;;;;;;;4988064;28;20023;-80
2022/10/23 08:17:58;;;;;;;5.60;3.00;;;;;;;;;;4994496;28;20030;-79
2022/10/23 08:20:24;;;;;;;9.07;3.88;;;;;;;;;;4993568;28;20211;-79
2022/10/23 08:22:52;;;;;;;9.02;3.28;;;;;;;;;;4978791;28;20031;-79
2022/10/23 08:25:18;;;;;;;7.38;2.90;;;;;;;;;;4983167;28;20050;-79
2022/10/23 08:27:44;;;;;;;6.47;2.67;;;;;;;;;;4985160;28;20042;-78
2022/10/23 08:30:13;;;;;;;10.73;3.00;;;;;;;;;;4980000;28;20485;-79
2022/10/23 08:32:39;;;;;;;10.68;3.28;;;;;;;;;;4987161;28;20027;-79
2022/10/23 08:35:05;;;;;;;10.55;3.00;;;;;;;;;;4985974;28;20034;-79
2022/10/23 08:37:32;;;;;;;6.72;2.92;;;;;;;;;;4982977;28;20041;-81
2022/10/23 08:39:58;;;;;;;6.25;2.97;;;;;;;;;;4985313;28;20019;-79
2022/10/23 08:42:28;;;;;;;8.57;3.17;;;;;;;;;;4980982;28;20023;-80
2022/10/23 08:45:03;;;;;;;15.65;3.80;;;;;;;;;;4986158;28;20077;-81
2022/10/23 08:47:29;;;;;;;;;;;;;;;;;;4989484;28;20031;-80
2022/10/23 08:50:18;;;;;;;13.63;4.28;;;;;;;;;;4973139;28;20320;-79
2022/10/23 08:52:51;;;;;;;10.20;3.63;;;;;;;;;;4981844;28;20109;-80
2022/10/23 08:55:25;;;;;;;10.88;4.35;;;;;;;;;;4984634;28;20497;-80
2022/10/23 09:00:53;;;;;;;7.38;4.20;;;;;;;;;;4967111;28;20055;-78
2022/10/23 09:03:19;;;;;;;8.50;3.70;;;;;;;;;;4975158;28;20022;-80
2022/10/23 09:05:52;;;;;;;6.63;3.60;;;;;;;;;;4977764;28;20046;-80
2022/10/23 09:08:40;;;;;;;9.48;3.67;;;;;;;;;;4973369;28;20062;-80
2022/10/23 09:11:24;;;;;;;12.73;3.90;;;;;;;;;;4970068;28;20035;-80
2022/10/23 09:13:55;;;;;;;6.97;3.05;;;;;;;;;;4979663;28;20034;-79
2022/10/23 09:16:36;;;;;;;7.97;3.45;;;;;;;;;;4979436;28;20027;-79
2022/10/23 09:19:08;;;;;;;7.13;3.80;;;;;;;;;;4985273;28;20022;-79
2022/10/23 09:21:35;;;;;;;6.03;3.90;;;;;;;;;;4973363;28;20046;-79
2022/10/23 09:24:01;;;;;;;5.57;3.65;;;;;;;;;;4982263;28;20041;-79
2022/10/23 09:26:27;;;;;;;8.88;3.70;;;;;;;;;;4977371;28;20393;-79
2022/10/23 09:29:13;;;;;;;5.70;2.88;;;;;;;;;;4978701;28;20031;-79
2022/10/23 09:31:56;;;;;;;5.90;3.33;;;;;;;;;;4978437;28;20075;-81
2022/10/23 09:34:23;;;;;;;6.97;3.42;;;;;;;;;;4973737;28;20046;-79
2022/10/23 09:36:51;;;;;;;6.95;3.10;;;;;;;;;;4971177;28;20031;-81
2022/10/23 09:39:25;;;;;;;7.55;3.00;;;;;;;;;;4965373;28;20031;-80
2022/10/23 09:41:51;;;;;;;6.68;3.20;;;;;;;;;;4966216;28;20031;-80
2022/10/23 09:44:22;;;;;;;8.95;3.25;;;;;;;;;;4977340;28;20082;-79
2022/10/23 09:46:52;;;;;;;3.50;2.78;;;;;;;;;;4979818;28;20507;-79
2022/10/23 09:49:28;;;;;;;7.25;2.95;;;;;;;;;;4984470;28;20093;-79
2022/10/23 09:52:03;;;;;;;8.10;3.20;;;;;;;;;;4973937;28;20030;-79
2022/10/23 09:54:31;;;;;;;6.25;2.85;;;;;;;;;;4969944;28;20040;-80
2022/10/23 09:56:59;;;;;;;5.07;3.10;;;;;;;;;;4978698;28;20509;-80
2022/10/23 09:59:27;;;;;;;5.70;2.55;;;;;;;;;;4970190;28;20023;-80
2022/10/23 10:01:55;;;;;;;4.78;2.65;;;;;;;;;;4982456;28;20066;-80
2022/10/23 10:04:35;;;;;;;6.25;3.40;;;;;;;;;;4977842;28;20086;-80
2022/10/23 10:07:02;;;;;;;5.88;2.55;;;;;;;;;;4976509;28;20034;-80
2022/10/23 10:09:29;;;;;;;5.32;3.03;;;;;;;;;;4977694;28;20034;-80
2022/10/23 10:11:58;;;;;;;7.63;2.80;;;;;;;;;;4972101;28;20039;-79
2022/10/23 10:14:39;;;;;;;6.13;3.45;;;;;;;;;;4968569;28;20029;-78
2022/10/23 10:17:13;;;;;;;6.47;2.72;;;;;;;;;;4976314;28;20045;-79
2022/10/23 10:19:49;;;;;;;7.03;3.50;;;;;;;;;;4966369;28;20524;-79
2022/10/23 10:22:21;;;;;;;8.48;2.80;;;;;;;;;;4970258;28;20031;-79
2022/10/23 10:24:52;;;;;;;5.18;3.15;;;;;;;;;;4974706;28;20033;-78
2022/10/23 10:27:30;;;;;;;4.82;2.70;;;;;;;;;;4980915;28;20080;-80
2022/10/23 10:30:15;;;;;;;5.80;3.40;;;;;;;;;;4975663;28;20073;-79
2022/10/23 10:32:45;;;;;;;6.65;2.63;;;;;;;;;;4971690;28;20030;-80
2022/10/23 10:35:30;;;;;;;6.95;2.55;;;;;;;;;;4979351;28;20031;-81
2022/10/23 10:38:12;;;;;;;12.13;3.00;;;;;;;;;;4974604;28;20018;-79
2022/10/23 10:40:40;;;;;;;6.38;3.05;;;;;;;;;;4967288;28;20027;-79
2022/10/23 10:43:12;;;;;;;6.70;2.78;;;;;;;;;;4974781;28;20114;-78
2022/10/23 10:45:41;;;;;;;4.55;3.00;;;;;;;;;;4970096;28;20035;-81
2022/10/23 10:48:07;;;;;;;7.38;2.88;;;;;;;;;;4971523;28;20223;-79
2022/10/23 10:50:42;;;;;;;4.03;2.67;;;;;;;;;;4969507;28;20035;-79
2022/10/23 10:53:28;;;;;;;7.88;3.28;;;;;;;;;;4987687;28;20086;-79
2022/10/23 10:55:55;;;;;;;5.55;2.38;;;;;;;;;;4970168;28;20483;-79
2022/10/23 10:58:41;;;;;;;5.00;2.45;;;;;;;;;;4974886;28;20039;-79
2022/10/23 11:01:25;;;;;;;3.85;2.20;;;;;;;;;;4969680;28;20091;-80
2022/10/23 11:04:09;;;;;;;5.50;2.38;;;;;;;;;;4972083;28;20046;-79
2022/10/23 11:06:37;;;;;;;6.05;2.45;;;;;;;;;;4979451;28;20047;-79
2022/10/23 11:09:10;;;;;;;5.45;2.42;;;;;;;;;;4976753;28;20038;-80
2022/10/23 11:11:39;;;;;;;4.88;2.10;;;;;;;;;;4969345;28;20031;-79
2022/10/23 11:14:06;;;;;;;4.13;2.67;;;;;;;;;;4981627;28;20072;-80
2022/10/23 11:16:35;;;;;;;4.15;2.05;;;;;;;;;;4979665;28;20053;-79
2022/10/23 11:19:04;;;;;;;5.40;2.05;;;;;;;;;;4980172;28;20066;-79
2022/10/23 11:21:47;;;;;;;4.15;1.75;;;;;;;;;;4973235;28;20466;-79
2022/10/23 11:24:22;;;;;;;6.10;2.05;;;;;;;;;;4971808;28;20608;-79
2022/10/23 11:26:51;;;;;;;4.22;2.25;;;;;;;;;;4969004;28;20031;-79
2022/10/23 11:29:24;;;;;;;5.47;2.45;;;;;;;;;;4972660;28;20038;-80
2022/10/23 11:31:56;;;;;;;2.97;2.25;;;;;;;;;;4969348;28;20039;-80
2022/10/23 11:34:25;;;;;;;3.83;1.98;;;;;;;;;;4980830;28;20026;-80
2022/10/23 11:36:56;;;;;;;3.83;1.88;;;;;;;;;;4974026;28;20031;-79
2022/10/23 11:39:24;;;;;;;4.32;1.77;;;;;;;;;;4971117;28;20023;-79
2022/10/23 11:41:55;;;;;;;4.43;2.00;;;;;;;;;;4981277;28;20026;-79
2022/10/23 11:44:26;;;;;;;5.47;2.08;;;;;;;;;;4969063;28;20041;-79
2022/10/23 11:47:06;;;;;;;5.97;2.80;;;;;;;;;;4962970;28;20118;-79
2022/10/23 11:49:32;;;;;;;5.50;1.90;;;;;;;;;;4972665;28;20121;-80
2022/10/23 11:52:02;;;;;;;5.05;2.28;;;;;;;;;;4973253;28;20064;-79
2022/10/23 11:54:29;;;;;;;4.95;2.00;;;;;;;;;;4967436;28;20034;-80
2022/10/23 11:57:04;;;;;;;3.50;1.92;;;;;;;;;;4966175;28;20082;-80
2022/10/23 11:59:33;;;;;;;4.50;2.92;;;;;;;;;;4968881;28;20992;-82
2022/10/23 12:02:00;;;;;;;5.20;2.20;;;;;;;;;;4959433;28;20119;-78
2022/10/23 12:04:53;;;;;;;6.97;2.30;;;;;;;;;;4958719;28;20042;-80
2022/10/23 12:07:24;;;;;;;3.58;1.85;;;;;;;;;;4970518;28;20110;-79
2022/10/23 12:10:09;;;;;;;5.00;2.10;;;;;;;;;;4967937;28;20034;-79
2022/10/23 12:12:39;;;;;;;4.63;2.60;;;;;;;;;;4964804;28;20559;-79
2022/10/23 12:15:17;;;;;;;2.85;1.75;;;;;;;;;;4959138;28;20481;-78
2022/10/23 12:17:44;;;;;;;4.25;1.77;;;;;;;;;;4965304;28;20023;-81
2022/10/23 12:20:10;;;;;;;5.20;2.10;;;;;;;;;;4966506;28;20035;-79
2022/10/23 12:22:39;;;;;;;6.78;2.20;;;;;;;;;;4965727;28;21282;-79
2022/10/23 12:25:16;;;;;;;6.72;1.85;;;;;;;;;;4962407;28;20537;-78
2022/10/23 12:28:00;;;;;;;5.55;2.53;;;;;;;;;;4964621;28;20037;-79
2022/10/23 12:30:45;;;;;;;9.23;2.50;;;;;;;;;;4984324;28;20090;-79
2022/10/23 12:33:15;;;;;;;4.40;1.83;;;;;;;;;;4965988;28;20038;-79
2022/10/23 12:35:46;;;;;;;6.80;2.33;;;;;;;;;;4959945;28;20023;-78
2022/10/23 12:38:23;;;;;;;5.00;2.10;;;;;;;;;;4962961;28;20061;-81
2022/10/23 12:40:53;;;;;;;9.10;2.50;;;;;;;;;;4973319;28;20034;-80
2022/10/23 12:43:22;;;;;;;6.28;2.60;;;;;;;;;;4975982;28;20035;-80
2022/10/23 12:45:49;;;;;;;7.20;2.58;;;;;;;;;;4975117;28;20018;-81
2022/10/23 12:48:22;;;;;;;7.10;3.47;;;;;;;;;;4962856;28;20039;-82
2022/10/23 12:50:49;;;;;;;4.10;2.08;;;;;;;;;;4958636;28;20027;-80
2022/10/23 12:53:16;;;;;;;5.95;2.00;;;;;;;;;;4954835;28;20043;-80
2022/10/23 12:55:47;;;;;;;5.18;2.35;;;;;;;;;;4960851;28;20034;-79
2022/10/23 12:58:21;;;;;;;5.75;2.30;;;;;;;;;;4960829;28;20050;-80
2022/10/23 13:00:54;;;;;;;6.13;2.17;;;;;;;;;;4961581;28;20498;-80
2022/10/23 13:03:22;;;;;;;8.68;2.75;;;;;;;;;;4977658;28;20046;-79
2022/10/23 13:05:50;;;;;;;6.45;2.25;;;;;;;;;;4963431;28;20034;-79
2022/10/23 13:08:16;;;;;;;8.15;2.30;;;;;;;;;;4962177;28;20064;-81
2022/10/23 13:10:42;;;;;;;3.90;1.90;;;;;;;;;;4961596;28;20110;-80
2022/10/23 13:13:10;;;;;;;8.30;2.30;;;;;;;;;;4964794;28;20034;-80
2022/10/23 13:15:38;;;;;;;4.95;2.47;;;;;;;;;;4971518;28;20042;-79
2022/10/23 13:18:05;;;;;;;5.22;2.40;;;;;;;;;;4960235;28;20030;-79
2022/10/23 13:20:36;;;;;;;7.65;2.20;;;;;;;;;;4959132;28;20058;-80
2022/10/23 13:23:12;;;;;;;5.07;2.10;;;;;;;;;;4970042;28;20023;-79
2022/10/23 13:25:38;;;;;;;7.07;2.85;;;;;;;;;;4970075;28;20026;-80
2022/10/23 13:28:08;;;;;;;5.00;2.22;;;;;;;;;;4961303;28;20034;-80
2022/10/23 13:30:38;;;;;;;4.13;2.20;;;;;;;;;;4971554;28;20110;-79
2022/10/23 13:33:34;;;;;;;7.45;2.53;;;;;;;;;;4977204;28;20483;-79
2022/10/23 13:36:01;;;;;;;6.95;2.30;;;;;;;;;;4958025;28;20067;-79
2022/10/23 13:38:31;;;;;;;8.15;2.80;;;;;;;;;;4968179;28;20027;-79
2022/10/23 13:41:01;;;;;;;6.07;2.75;;;;;;;;;;4966441;28;20019;-79
2022/10/23 13:43:29;;;;;;;10.10;4.00;;;;;;;;;;4964424;28;20034;-79
2022/10/23 13:45:55;;;;;;;9.73;3.85;;;;;;;;;;4962927;28;20119;-80
2022/10/23 13:48:21;;;;;;;7.53;3.05;;;;;;;;;;4962573;28;20023;-79
2022/10/23 13:50:47;;;;;;;6.95;3.13;;;;;;;;;;4964887;28;20074;-79
2022/10/23 13:53:14;;;;;;;5.22;2.83;;;;;;;;;;4970649;28;20093;-79
2022/10/23 13:55:40;;;;;;;9.07;2.42;;;;;;;;;;4967056;28;20435;-80
2022/10/23 13:58:06;;;;;;;8.55;2.88;;;;;;;;;;4967918;28;20037;-79
2022/10/23 14:00:32;;;;;;;10.10;4.50;;;;;;;;;;4967535;28;20034;-79
2022/10/23 14:02:58;;;;;;;6.07;3.10;;;;;;;;;;4968293;28;20517;-79
2022/10/23 14:05:25;;;;;;;8.25;2.60;;;;;;;;;;4971171;28;20026;-79
2022/10/23 14:07:51;;;;;;;9.55;3.40;;;;;;;;;;4970821;28;20133;-79
2022/10/23 14:10:17;;;;;;;6.43;2.75;;;;;;;;;;4961978;28;20027;-79
2022/10/23 14:12:43;;;;;;;8.13;3.08;;;;;;;;;;4965209;28;20109;-80
2022/10/23 14:15:10;;;;;;;8.50;3.08;;;;;;;;;;4967187;28;20419;-79
2022/10/23 14:17:37;;;;;;;6.03;2.38;;;;;;;;;;4965003;28;20034;-80
2022/10/23 14:20:04;;;;;;;8.80;2.60;;;;;;;;;;4959489;28;20045;-79
2022/10/23 14:22:30;;;;;;;8.40;3.17;;;;;;;;;;4969536;28;20410;-82
2022/10/23 14:24:56;;;;;;;5.40;2.17;;;;;;;;;;4965046;28;20034;-82
2022/10/23 14:27:22;;;;;;;5.03;2.60;;;;;;;;;;4967278;28;20027;-80
2022/10/23 14:29:48;;;;;;;7.28;2.38;;;;;;;;;;4971855;28;20035;-78
2022/10/23 14:32:14;;;;;;;8.32;2.30;;;;;;;;;;4958613;28;20101;-79
2022/10/23 14:34:41;;;;;;;3.50;1.92;;;;;;;;;;4962606;28;20027;-78
2022/10/23 14:37:07;;;;;;;6.50;2.50;;;;;;;;;;4969949;28;20490;-78
2022/10/23 14:39:33;;;;;;;9.60;3.28;;;;;;;;;;4964982;28;20032;-78
2022/10/23 14:41:59;;;;;;;9.63;3.65;;;;;;;;;;4965544;28;20058;-79
2022/10/23 14:44:26;;;;;;;9.45;2.15;;;;;;;;;;4964295;28;20027;-77
2022/10/23 14:46:52;;;;;;;4.57;2.28;;;;;;;;;;4960746;28;20461;-78
2022/10/23 14:49:18;;;;;;;7.88;2.63;;;;;;;;;;4961701;28;20035;-78
2022/10/23 14:51:44;;;;;;;5.97;2.58;;;;;;;;;;4966249;28;20035;-78
2022/10/23 14:54:10;;;;;;;7.43;2.63;;;;;;;;;;4965153;28;20022;-78
2022/10/23 14:56:39;;;;;;;5.70;2.40;;;;;;;;;;4978380;28;20477;-78